Latest Weather Observations for Giles*

IDD60801

Issued at 11:31 pm CST Tuesday 28 April 2015 (issued every 30 minutes, with the page automatically refreshed every 10 minutes)

About weather observations | Map of weather stations | Latest weather observations for NT | Other Formats
Station Details ID: 013017 Name: GILES METEOROLOGICAL OFFICE Lat: -25.03 Lon: 128.30 Height: 598.0 m
Data from the previous 72 hours. | See also: Recent months at Giles*

* Giles observations are collected in the South Australia time zone, which includes daylight saving in the summer period. Therefore, Rain since 9am value is with respect to South Australia local time.

Date/Time
CST
Temp
°C
App
Temp
°C
Dew
Point
Rel
Hum
%
Delta-T
°C
Wind Press
QNH
hPa
Press
MSL
hPa
Rain
since 9 am
mm
Dir
 
Spd
km/h
Gust
km/h
Spd
kts
Gust
kts
28/11:30pm 15.2 10.1 -2.1 30 7.2 E 15 17 8 9 1024.7 1021.6 0.0
28/11:00pm 15.6 10.9 -1.7 30 7.3 ENE 13 17 7 9 1025.0 1021.9 0.0
28/10:30pm 15.3 10.6 -1.9 30 7.2 ENE 13 19 7 10 1025.0 1021.9 0.0
28/10:00pm 14.7 10.0 -1.8 32 6.9 E 13 15 7 8 1024.8 1021.7 0.0
28/09:30pm 15.7 11.4 -1.5 30 7.3 E 11 13 6 7 1024.6 1021.5 0.0
28/08:30pm 16.2 11.9 -1.3 30 7.5 ESE 11 11 6 6 1024.0 1021.0 0.0
28/08:00pm 17.2 12.9 -1.7 27 8.1 ESE 11 13 6 7 1023.5 1020.4 0.0
28/07:30pm 18.1 13.8 -1.9 25 8.6 ESE 11 13 6 7 1023.1 1020.0 0.0
28/07:00pm 19.5 14.3 -2.6 22 9.5 SE 15 20 8 11 1022.7 1019.6 0.0
28/06:30pm 20.6 14.5 -2.7 20 10.1 SE 20 28 11 15 1022.1 1019.1 0.0
28/05:30pm 21.5 14.6 -2.8 19 10.6 ESE 24 32 13 17 1021.7 1018.6 0.0
28/05:00pm 22.4 16.3 -2.5 19 11.0 ESE 20 32 11 17 1021.7 1018.6 0.0
28/04:30pm 22.0 15.9 -2.5 19 10.8 SE 20 30 11 16 1021.7 1018.6 0.0
28/04:00pm 22.5 16.3 -3.1 18 11.2 SE 20 32 11 17 1021.9 1018.8 0.0
28/03:30pm 21.6 15.1 -2.2 20 10.5 ESE 22 37 12 20 1022.0 1018.9 0.0
28/03:00pm 22.1 16.2 -1.9 20 10.7 SE 19 30 10 16 1022.4 1019.4 0.0
28/02:30pm 22.3 16.9 -1.5 20 10.7 SE 17 30 9 16 1023.1 1020.0 0.0
28/02:00pm 21.9 16.5 -1.1 21 10.4 E 17 28 9 15 1023.5 1020.4 0.0
28/01:30pm 20.6 13.6 -0.3 24 9.5 ESE 26 37 14 20 1024.0 1021.0 0.0
28/01:00pm 20.3 14.1 -0.6 24 9.4 ESE 22 35 12 19 1024.7 1021.6 0.0
28/12:30pm 19.3 13.5 0.1 27 8.7 E 20 32 11 17 1025.2 1022.2 0.0
28/12:00pm 19.0 12.9 0.2 28 8.5 E 22 33 12 18 1025.7 1022.7 0.0
28/11:30am 18.9 13.3 1.1 30 8.2 E 20 28 11 15 1026.0 1023.0 0.0
28/11:00am 18.2 12.2 1.2 32 7.8 ENE 22 32 12 17 1026.4 1023.3 0.0
28/10:30am 17.9 12.3 1.3 32 7.6 ENE 20 32 11 17 1026.6 1023.5 0.0
28/10:00am 16.6 9.9 1.4 36 6.9 ENE 26 35 14 19 1026.9 1023.9 0.0
28/07:30am 8.7 4.2 -0.1 54 3.6 E 13 15 7 8 1025.9 1022.9 0.0
28/07:00am 8.9 4.9 0.2 54 3.6 ESE 11 13 6 7 1025.6 1022.6 0.0
28/06:30am 9.3 5.2 -0.2 51 3.9 ESE 11 13 6 7 1025.4 1022.4 0.0
28/05:30am 9.7 6.0 0.0 51 4.0 E 9 11 5 6 1024.7 1021.6 0.0
28/05:00am 9.9 6.7 0.6 52 3.9 ESE 7 9 4 5 1024.5 1021.4 0.0
28/04:30am 9.7 6.0 0.0 51 4.0 ESE 9 11 5 6 1024.6 1021.5 0.0
28/04:00am 10.3 6.2 -0.4 47 4.4 E 11 13 6 7 1024.6 1021.5 0.0
28/03:30am 10.5 6.4 -0.4 47 4.5 E 11 13 6 7 1024.6 1021.5 0.0
28/03:00am 11.4 7.3 -0.3 44 4.9 E 11 13 6 7 1024.7 1021.6 0.0
28/02:30am 11.5 7.4 -0.5 43 5.0 ESE 11 15 6 8 1024.9 1021.8 0.0
28/02:00am 11.9 7.7 -0.6 42 5.2 E 11 13 6 7 1025.2 1022.2 0.0
28/01:30am 12.7 8.2 -0.6 40 5.6 ESE 13 15 7 8 1025.3 1022.3 0.0
28/01:00am 13.1 8.5 -0.7 38 5.8 ESE 13 15 7 8 1025.3 1022.3 0.0
28/12:30am 13.1 9.0 0.0 40 5.6 ESE 11 11 6 6 1025.2 1022.2 0.0
28/12:00am 14.3 10.2 -0.1 37 6.2 E 11 13 6 7 1025.4 1022.4 0.0
 
Date/Time
CST
Temp
°C
App
Temp
°C
Dew
Point
Rel
Hum
%
Delta-T
°C
Wind Press
QNH
hPa
Press
MSL
hPa
Rain
since 9 am
mm
Dir
 
Spd
km/h
Gust
km/h
Spd
kts
Gust
kts
27/11:30pm 15.6 10.6 -1.0 32 7.1 ESE 15 20 8 11 1025.4 1022.4 0.0
27/11:00pm 16.3 10.9 -1.2 30 7.5 SE 17 20 9 11 1025.3 1022.3 0.0
27/10:30pm 16.7 11.3 -1.2 29 7.7 SE 17 24 9 13 1025.2 1022.2 0.0
27/10:00pm 15.8 11.2 -1.0 31 7.2 SE 13 15 7 8 1025.2 1022.2 0.0
27/09:30pm 15.8 11.2 -1.0 31 7.2 ESE 13 15 7 8 1025.1 1022.0 0.0
27/09:00pm 16.3 12.5 -0.4 32 7.3 E 9 11 5 6 1024.9 1021.8 0.0
27/08:30pm 17.1 12.9 -1.1 29 7.9 ESE 11 13 6 7 1024.5 1021.4 0.0
27/08:00pm 18.2 13.9 -1.3 26 8.5 ESE 11 15 6 8 1024.2 1021.2 0.0
27/07:30pm 19.5 14.4 -1.8 23 9.3 SE 15 17 8 9 1024.2 1021.2 0.0
27/07:00pm 20.5 14.6 -2.1 21 9.9 SE 19 24 10 13 1023.9 1020.9 0.0
27/06:30pm 21.4 15.6 -1.8 21 10.3 SE 19 24 10 13 1023.6 1020.6 0.0
27/06:00pm 22.2 16.7 -2.1 19 10.8 SE 17 24 9 13 1023.3 1020.2 0.0
27/05:30pm 22.7 17.1 -2.7 18 11.2 SE 17 24 9 13 1023.1 1020.0 0.0
27/05:00pm 23.3 17.1 -3.0 17 11.6 ESE 20 30 11 16 1023.0 1019.9 0.0
27/04:30pm 23.3 17.5 -1.7 19 11.3 SE 19 32 10 17 1022.8 1019.7 0.0
27/04:00pm 23.5 18.2 -0.8 20 11.2 E 17 32 9 17 1022.7 1019.6 0.0
27/03:30pm 23.3 17.5 -1.7 19 11.3 ESE 19 28 10 15 1022.9 1019.8 0.0
27/03:00pm 22.7 17.3 -1.0 20 10.8 ESE 17 30 9 16 1023.0 1019.9 0.0
27/02:30pm 22.4 16.7 -0.8 21 10.6 ESE 19 30 10 16 1023.3 1020.2 0.0
27/02:00pm 21.9 16.3 -0.3 22 10.2 SE 19 35 10 19 1023.6 1020.6 0.0
27/01:30pm 21.3 16.5 -0.1 24 9.8 E 15 28 8 15 1024.1 1021.1 0.0
27/01:00pm 20.8 15.0 -0.3 24 9.6 ESE 20 32 11 17 1024.7 1021.6 0.0
27/12:30pm 21.0 15.2 -0.3 24 9.7 ESE 20 32 11 17 1025.0 1021.9 0.0
27/12:00pm 20.8 15.4 1.1 27 9.2 ENE 19 28 10 15 1025.5 1022.5 0.0
27/11:30am 19.6 14.5 0.6 28 8.7 ENE 17 26 9 14 1025.8 1022.8 0.0
27/11:00am 18.7 12.7 1.0 30 8.2 E 22 32 12 17 1026.2 1023.1 0.0
27/10:30am 18.4 12.0 1.2 31 7.9 ENE 24 35 13 19 1026.2 1023.1 0.0
27/10:00am 17.2 10.3 0.4 32 7.6 E 26 39 14 21 1026.2 1023.1 0.0
27/09:30am 15.8 8.9 0.4 35 6.8 ESE 26 35 14 19 1025.9 1022.9 0.0
27/09:00am 13.6 7.9 0.5 40 5.7 ESE 20 28 11 15 1025.7 1022.7 0.0
27/08:30am 11.4 6.3 0.6 47 4.6 ESE 17 24 9 13 1025.5 1022.5 0.0
27/08:00am 10.2 5.1 0.7 51 4.0 SE 17 22 9 12 1025.1 1022.0 0.0
27/07:30am 9.8 5.1 0.8 53 3.8 ESE 15 20 8 11 1024.7 1021.6 0.0
27/07:00am 9.8 4.7 0.8 53 3.8 ESE 17 20 9 11 1024.3 1021.3 0.0
27/06:30am 9.2 4.4 0.3 53 3.7 ESE 15 19 8 10 1024.2 1021.2 0.0
27/06:00am 9.3 4.1 0.1 52 3.8 ESE 17 20 9 11 1024.0 1021.0 0.0
27/05:30am 9.2 4.0 0.0 52 3.8 ESE 17 20 9 11 1023.8 1020.8 0.0
27/05:00am 9.4 4.6 -0.1 51 3.9 SE 15 17 8 9 1023.6 1020.6 0.0
27/04:30am 11.3 6.1 0.2 46 4.7 ESE 17 20 9 11 1023.5 1020.4 0.0
27/04:00am 10.8 6.0 0.1 47 4.5 ESE 15 17 8 9 1023.6 1020.6 0.0
27/03:30am 10.9 6.1 -0.1 46 4.6 ESE 15 19 8 10 1023.9 1020.9 0.0
27/03:00am 11.1 6.3 -0.1 46 4.7 ESE 15 17 8 9 1024.0 1021.0 0.0
27/02:30am 11.5 6.6 -0.2 44 4.9 ESE 15 20 8 11 1024.0 1021.0 0.0
27/02:00am 12.0 7.5 -0.1 43 5.1 ESE 13 15 7 8 1024.2 1021.2 0.0
27/01:30am 13.1 7.8 -0.3 39 5.7 ESE 17 19 9 10 1024.3 1021.3 0.0
27/01:00am 13.8 8.9 -0.2 38 6.0 ESE 15 20 8 11 1024.5 1021.4 0.0
27/12:30am 14.2 9.0 -0.2 37 6.2 E 17 20 9 11 1024.6 1021.5 0.0
27/12:00am 14.6 9.7 -0.2 36 6.4 ESE 15 20 8 11 1024.7 1021.6 0.0
 
Date/Time
CST
Temp
°C
App
Temp
°C
Dew
Point
Rel
Hum
%
Delta-T
°C
Wind Press
QNH
hPa
Press
MSL
hPa
Rain
since 9 am
mm
Dir
 
Spd
km/h
Gust
km/h
Spd
kts
Gust
kts
26/11:30pm 13.7 9.6 -0.4 38 6.0 ESE 11 13 6 7 1025.0 1021.9 0.0
26/11:00pm 14.1 10.0 -0.4 37 6.2 E 11 13 6 7 1025.0 1021.9 0.0
26/10:30pm 14.4 10.6 -0.9 35 6.5 E 9 11 5 6 1025.1 1022.0 0.0
26/10:00pm 15.0 11.1 -1.3 32 6.9 E 9 11 5 6 1025.0 1021.9 0.0
26/09:30pm 15.2 11.4 -0.9 33 6.9 SE 9 11 5 6 1024.7 1021.6 0.0
26/09:00pm 16.3 12.1 -1.1 30 7.5 SSE 11 13 6 7 1024.3 1021.3 0.0
26/08:30pm 17.4 12.7 -1.7 27 8.2 SE 13 15 7 8 1023.8 1020.8 0.0
26/08:00pm 17.9 13.2 -1.5 26 8.4 SE 13 15 7 8 1023.6 1020.6 0.0
26/07:30pm 18.4 14.6 -0.5 28 8.4 SE 9 13 5 7 1023.3 1020.2 0.0
26/07:00pm 20.1 15.4 -2.1 22 9.7 SSE 13 15 7 8 1023.1 1020.0 0.0
26/06:30pm 21.5 15.9 -3.3 18 10.7 SE 17 26 9 14 1022.5 1019.5 0.0
26/06:00pm 22.3 16.2 -3.6 17 11.2 SSE 19 24 10 13 1022.2 1019.2 0.0
26/05:30pm 22.7 16.4 -4.0 16 11.5 SSE 20 32 11 17 1022.1 1019.1 0.0
26/05:00pm 22.7 16.4 -4.0 16 11.5 SE 20 26 11 14 1022.0 1018.9 0.0
26/04:30pm 23.4 17.3 -3.7 16 11.8 SE 19 28 10 15 1022.0 1018.9 0.0
26/04:00pm 22.9 16.9 -3.1 17 11.4 SSE 19 28 10 15 1022.0 1018.9 0.0
26/03:30pm 22.2 16.8 -1.7 20 10.7 SSE 17 28 9 15 1022.1 1019.1 0.0
26/03:00pm 22.5 16.7 -1.8 19 10.9 SE 19 28 10 15 1022.2 1019.2 0.0
26/02:30pm 22.0 17.9 -0.1 23 10.2 SSE 11 28 6 15 1022.4 1019.4 0.0
26/02:00pm 21.1 16.5 -0.8 23 9.9 SE 13 22 7 12 1022.9 1019.8 0.0
26/01:30pm 21.1 16.1 -1.2 22 10.0 ESE 15 30 8 16 1023.4 1020.3 0.0
26/01:00pm 20.6 15.8 0.0 25 9.4 E 15 26 8 14 1023.9 1020.9 0.0
26/12:30pm 19.9 14.7 0.1 26 9.0 ESE 17 28 9 15 1024.6 1021.5 0.0
26/12:00pm 19.6 14.5 0.6 28 8.7 E 17 24 9 13 1025.0 1021.9 0.0
26/11:30am 18.7 12.8 1.4 31 8.0 E 22 30 12 16 1025.4 1022.4 0.0
26/11:00am 18.1 11.8 1.3 32 7.7 E 24 33 13 18 1025.6 1022.6 0.0
26/10:30am 17.3 11.1 1.9 35 7.1 E 24 33 13 18 1025.8 1022.8 0.0
26/10:00am 16.1 10.0 2.5 40 6.3 E 24 33 13 18 1025.8 1022.8 0.0
26/09:30am 15.0 8.4 2.3 42 5.8 E 26 33 14 18 1025.8 1022.8 0.0
26/09:00am 13.9 8.5 2.5 46 5.2 ESE 20 28 11 15 1025.7 1022.7 0.0
26/08:30am 12.1 6.9 2.5 52 4.3 ESE 19 24 10 13 1025.4 1022.4 0.0
26/08:00am 9.8 4.9 2.2 59 3.3 ESE 17 20 9 11 1025.1 1022.0 0.0
26/07:30am 7.9 3.0 2.0 66 2.5 ESE 17 20 9 11 1024.9 1021.8 0.0
26/07:00am 8.2 3.3 2.1 65 2.6 ESE 17 20 9 11 1024.6 1021.5 0.0
26/06:30am 8.9 4.0 2.2 63 2.9 ESE 17 20 9 11 1024.3 1021.3 0.0
26/06:00am 8.2 4.0 1.6 63 2.8 ESE 13 17 7 9 1024.2 1021.2 0.0
26/05:30am 8.9 4.3 1.6 60 3.1 ESE 15 19 8 10 1024.2 1021.2 0.0
26/05:00am 9.1 4.5 1.6 59 3.2 ESE 15 19 8 10 1024.1 1021.1 0.0
26/04:30am 8.9 4.3 1.6 60 3.1 ESE 15 19 8 10 1023.9 1020.9 0.0
26/04:00am 9.3 5.1 1.6 58 3.3 ESE 13 17 7 9 1023.8 1020.8 0.0
26/03:30am 9.2 5.0 1.5 58 3.3 ESE 13 15 7 8 1023.8 1020.8 0.0
26/03:00am 9.5 5.2 1.0 55 3.6 ESE 13 15 7 8 1023.8 1020.8 0.0
26/02:30am 9.6 5.3 0.8 54 3.7 ESE 13 15 7 8 1023.8 1020.8 0.0
26/02:00am 10.0 5.7 0.8 53 3.9 ESE 13 15 7 8 1023.7 1020.7 0.0
26/01:30am 10.3 5.5 0.3 50 4.2 ESE 15 17 8 9 1023.8 1020.8 0.0
26/01:00am 11.5 6.3 0.1 45 4.8 SE 17 19 9 10 1023.9 1020.9 0.0
26/12:30am 11.4 6.9 0.0 45 4.8 E 13 15 7 8 1024.2 1021.2 0.0
26/12:00am 12.0 8.0 0.3 44 5.0 SE 11 13 6 7 1024.1 1021.1 0.0

Other Formats:

Comma delimited format used in spreadsheet applications
http://www.bom.gov.au/fwo/IDD60801/IDD60801.94461.axf

JavaScript Object Notation format (JSON) in row-major order
http://www.bom.gov.au/fwo/IDD60801/IDD60801.94461.json